createdAt,value
2022-09-11T00:01:53.550Z,18.40
2022-09-11T00:04:21.226Z,18.40
2022-09-11T00:06:49.805Z,18.37
2022-09-11T00:09:18.818Z,18.37
2022-09-11T00:11:49.862Z,18.35
2022-09-11T00:14:17.472Z,18.33
2022-09-11T00:16:47.338Z,18.31
2022-09-11T00:19:17.441Z,18.30
2022-09-11T00:21:45.341Z,18.28
2022-09-11T00:24:13.162Z,18.26
2022-09-11T00:26:42.407Z,18.26
2022-09-11T00:29:10.216Z,18.23
2022-09-11T00:31:38.438Z,18.20
2022-09-11T00:34:06.844Z,18.19
2022-09-11T00:36:35.804Z,18.17
2022-09-11T00:39:03.701Z,18.15
2022-09-11T00:41:33.468Z,18.14
2022-09-11T00:44:04.839Z,18.15
2022-09-11T00:46:41.516Z,18.13
2022-09-11T00:49:17.770Z,18.06
2022-09-11T00:51:47.676Z,18.03
2022-09-11T00:54:16.475Z,17.98
2022-09-11T00:56:44.421Z,17.93
2022-09-11T00:59:13.978Z,17.89
2022-09-11T01:01:41.983Z,17.84
2022-09-11T01:04:10.382Z,17.83
2022-09-11T01:06:38.185Z,17.82
2022-09-11T01:09:05.826Z,17.85
2022-09-11T01:11:43.169Z,17.84
2022-09-11T01:14:21.389Z,17.80
2022-09-11T01:16:54.558Z,17.78
2022-09-11T01:19:32.567Z,17.78
2022-09-11T01:22:11.165Z,17.74
2022-09-11T01:24:50.470Z,17.71
2022-09-11T01:27:31.951Z,17.72
2022-09-11T01:30:03.044Z,17.72
2022-09-11T01:32:36.784Z,17.71
2022-09-11T01:35:08.466Z,17.71
2022-09-11T01:37:39.789Z,17.70
2022-09-11T01:40:11.616Z,17.68
2022-09-11T01:42:43.283Z,17.70
2022-09-11T01:45:12.663Z,17.70
2022-09-11T01:47:42.189Z,17.67
2022-09-11T01:50:11.414Z,17.66
2022-09-11T01:52:44.925Z,17.66
2022-09-11T01:55:14.512Z,17.66
2022-09-11T01:57:46.403Z,17.64
2022-09-11T02:00:15.018Z,17.65
2022-09-11T02:02:45.899Z,17.64
2022-09-11T02:05:18.087Z,17.63
2022-09-11T02:07:48.285Z,17.64
2022-09-11T02:10:18.223Z,17.60
2022-09-11T02:12:50.664Z,17.59
2022-09-11T02:15:18.940Z,17.63
2022-09-11T02:17:52.284Z,17.60
2022-09-11T02:20:21.517Z,17.63
2022-09-11T02:22:49.458Z,17.61
2022-09-11T02:25:17.566Z,17.60
2022-09-11T02:27:45.234Z,17.57
2022-09-11T02:30:15.504Z,17.47
2022-09-11T02:32:45.370Z,17.53
2022-09-11T02:35:13.283Z,17.52
2022-09-11T02:37:50.207Z,17.50
2022-09-11T02:40:32.933Z,17.43
2022-09-11T02:43:25.821Z,17.47
2022-09-11T02:46:16.133Z,17.50
2022-09-11T02:48:49.568Z,17.50
2022-09-11T02:51:22.902Z,17.45
2022-09-11T02:53:55.407Z,17.54
2022-09-11T02:56:30.514Z,17.51
2022-09-11T02:59:00.889Z,17.53
2022-09-11T03:01:30.027Z,17.51
2022-09-11T03:03:57.706Z,17.46
2022-09-11T03:06:27.349Z,17.41
2022-09-11T03:08:55.614Z,17.39
2022-09-11T03:11:23.318Z,17.38
2022-09-11T03:13:50.903Z,17.36
2022-09-11T03:16:19.140Z,17.36
2022-09-11T03:18:48.278Z,17.32
2022-09-11T03:21:16.957Z,17.32
2022-09-11T03:23:44.693Z,17.32
2022-09-11T03:26:12.379Z,17.30
2022-09-11T03:28:40.463Z,17.28
2022-09-11T03:31:09.771Z,17.27
2022-09-11T03:33:37.470Z,17.26
2022-09-11T03:36:06.959Z,17.24
2022-09-11T03:38:34.583Z,17.26
2022-09-11T03:41:03.320Z,17.23
2022-09-11T03:43:31.434Z,17.22
2022-09-11T03:46:00.575Z,17.21
2022-09-11T03:48:29.149Z,17.21
2022-09-11T03:50:56.805Z,17.20
2022-09-11T03:53:26.672Z,17.21
2022-09-11T03:55:54.823Z,17.20
2022-09-11T03:58:22.504Z,17.20
2022-09-11T04:00:50.155Z,17.19
2022-09-11T04:03:18.257Z,17.18
2022-09-11T04:05:57.649Z,17.17
2022-09-11T04:08:26.893Z,17.16
2022-09-11T04:10:58.394Z,17.13
2022-09-11T04:13:29.736Z,17.09
2022-09-11T04:16:01.004Z,17.07
2022-09-11T04:18:28.704Z,16.92
2022-09-11T04:20:56.328Z,17.02
2022-09-11T04:23:24.092Z,17.00
2022-09-11T04:25:53.302Z,16.99
2022-09-11T04:28:21.421Z,17.00
2022-09-11T04:30:49.066Z,16.98
2022-09-11T04:33:16.649Z,17.03
2022-09-11T04:35:44.626Z,17.02
2022-09-11T04:38:12.321Z,17.01
2022-09-11T04:40:39.926Z,17.02
2022-09-11T04:43:11.348Z,17.01
2022-09-11T04:45:40.501Z,17.00
2022-09-11T04:48:08.280Z,16.99
2022-09-11T04:50:35.933Z,16.98
2022-09-11T04:53:03.603Z,17.04
2022-09-11T04:55:31.218Z,17.03
2022-09-11T04:57:58.838Z,17.03
2022-09-11T05:00:28.192Z,16.99
2022-09-11T05:02:55.909Z,17.00
2022-09-11T05:05:23.539Z,17.00
2022-09-11T05:07:51.432Z,16.99
2022-09-11T05:10:20.291Z,17.00
2022-09-11T05:12:47.883Z,17.01
2022-09-11T05:15:15.751Z,16.99
2022-09-11T05:17:44.711Z,17.01
2022-09-11T05:20:12.428Z,16.99
2022-09-11T05:22:40.081Z,16.99
2022-09-11T05:25:08.959Z,17.00
2022-09-11T05:27:36.593Z,16.99
2022-09-11T05:30:04.628Z,16.99
2022-09-11T05:32:32.286Z,16.99
2022-09-11T05:35:01.284Z,16.99
2022-09-11T05:37:28.968Z,16.98
2022-09-11T05:39:56.939Z,16.95
2022-09-11T05:42:24.722Z,16.94
2022-09-11T05:44:52.384Z,16.91
2022-09-11T05:47:19.945Z,16.85
2022-09-11T05:49:47.528Z,16.81
2022-09-11T05:52:16.528Z,16.79
2022-09-11T05:54:44.147Z,16.78
2022-09-11T05:57:11.753Z,16.74
2022-09-11T05:59:39.369Z,16.72
2022-09-11T06:02:07.013Z,16.70
2022-09-11T06:04:42.371Z,16.69
2022-09-11T06:07:10.023Z,16.65
2022-09-11T06:09:39.047Z,16.66
2022-09-11T06:12:07.065Z,16.72
2022-09-11T06:14:34.658Z,16.71
2022-09-11T06:17:02.249Z,16.78
2022-09-11T06:19:29.915Z,16.81
2022-09-11T06:21:57.514Z,16.84
2022-09-11T06:24:25.154Z,16.86
2022-09-11T06:26:54.093Z,16.89
2022-09-11T06:29:21.675Z,16.91
2022-09-11T06:31:51.336Z,16.91
2022-09-11T06:34:19.948Z,16.93
2022-09-11T06:36:51.773Z,16.95
2022-09-11T06:39:22.813Z,16.98
2022-09-11T06:41:50.553Z,16.99
2022-09-11T06:44:19.513Z,17.03
2022-09-11T06:46:47.770Z,17.06
2022-09-11T06:49:16.189Z,17.08
2022-09-11T06:51:43.851Z,17.07
2022-09-11T06:54:11.719Z,17.02
2022-09-11T06:56:39.491Z,17.06
2022-09-11T06:59:07.203Z,17.05
2022-09-11T07:01:36.338Z,17.03
2022-09-11T07:04:04.149Z,17.01
2022-09-11T07:06:32.058Z,17.00
2022-09-11T07:09:02.479Z,17.02
2022-09-11T07:11:32.255Z,17.04
2022-09-11T07:13:59.999Z,17.05
2022-09-11T07:16:27.674Z,17.02
2022-09-11T07:18:58.156Z,17.02
2022-09-11T07:21:28.069Z,17.00
2022-09-11T07:23:57.498Z,17.01
2022-09-11T07:26:27.952Z,17.02
2022-09-11T07:28:57.558Z,17.05
2022-09-11T07:31:29.081Z,17.01
2022-09-11T07:33:58.298Z,17.09
2022-09-11T07:36:27.586Z,17.10
2022-09-11T07:38:55.966Z,17.12
2022-09-11T07:41:24.913Z,17.18
2022-09-11T07:43:53.760Z,17.19
2022-09-11T07:46:21.426Z,17.21
2022-09-11T07:48:49.176Z,17.22
2022-09-11T07:51:19.755Z,17.23
2022-09-11T07:53:48.850Z,17.21
2022-09-11T07:56:18.338Z,17.31
2022-09-11T07:58:46.356Z,17.31
2022-09-11T08:01:15.767Z,17.31
2022-09-11T08:03:44.276Z,17.32
2022-09-11T08:06:14.785Z,17.36
2022-09-11T08:08:45.517Z,17.37
2022-09-11T08:11:14.730Z,17.38
2022-09-11T08:13:42.881Z,17.43
2022-09-11T08:16:10.783Z,17.43
2022-09-11T08:18:38.413Z,17.48
2022-09-11T08:21:12.569Z,17.51
2022-09-11T08:23:41.901Z,17.51
2022-09-11T08:26:13.387Z,17.55
2022-09-11T08:28:42.900Z,17.60
2022-09-11T08:31:11.100Z,17.66
2022-09-11T08:33:39.513Z,17.73
2022-09-11T08:36:09.668Z,17.72
2022-09-11T08:38:37.609Z,17.68
2022-09-11T08:41:13.522Z,17.76
2022-09-11T08:43:47.033Z,17.82
2022-09-11T08:46:14.769Z,17.86
2022-09-11T08:48:49.108Z,17.90
2022-09-11T08:51:18.657Z,17.93
2022-09-11T08:53:46.454Z,17.97
2022-09-11T08:56:18.962Z,18.00
2022-09-11T08:58:56.131Z,18.06
2022-09-11T09:01:27.584Z,18.08
2022-09-11T09:04:10.560Z,18.15
2022-09-11T09:06:50.075Z,18.18
2022-09-11T09:09:25.723Z,18.22
2022-09-11T09:11:57.515Z,18.21
2022-09-11T09:14:35.267Z,18.30
2022-09-11T09:17:05.688Z,18.33
2022-09-11T09:19:36.067Z,18.25
2022-09-11T09:22:09.043Z,18.31
2022-09-11T09:24:42.690Z,18.32
2022-09-11T09:27:21.437Z,18.37
2022-09-11T09:29:52.270Z,18.41
2022-09-11T09:32:25.130Z,18.47
2022-09-11T09:34:53.932Z,18.56
2022-09-11T09:37:23.450Z,18.58
2022-09-11T09:39:52.266Z,18.73
2022-09-11T09:42:39.280Z,18.85
2022-09-11T09:45:23.505Z,18.97
2022-09-11T09:47:51.261Z,19.07
2022-09-11T09:50:21.674Z,19.25
2022-09-11T09:52:50.434Z,19.45
2022-09-11T09:55:20.467Z,19.65
2022-09-11T09:57:50.332Z,19.81
2022-09-11T10:00:20.063Z,19.89
2022-09-11T10:02:53.642Z,19.91
2022-09-11T10:05:26.461Z,20.00
2022-09-11T10:07:56.768Z,20.07
2022-09-11T10:10:31.204Z,20.08
2022-09-11T10:13:18.009Z,20.13
2022-09-11T10:15:49.765Z,20.22
2022-09-11T10:18:25.474Z,20.31
2022-09-11T10:20:54.701Z,20.45
2022-09-11T10:23:24.549Z,20.45
2022-09-11T10:25:52.366Z,20.36
2022-09-11T10:28:26.638Z,20.24
2022-09-11T10:30:59.354Z,20.12
2022-09-11T10:33:29.752Z,20.03
2022-09-11T10:35:58.708Z,19.94
2022-09-11T10:38:31.439Z,19.85
2022-09-11T10:41:04.390Z,19.80
2022-09-11T10:43:39.455Z,19.70
2022-09-11T10:46:23.178Z,19.63
2022-09-11T10:48:56.150Z,19.66
2022-09-11T10:51:25.139Z,19.74
2022-09-11T10:54:09.973Z,19.87
2022-09-11T10:56:50.605Z,19.97
2022-09-11T10:59:23.371Z,20.04
2022-09-11T11:01:51.355Z,20.18
2022-09-11T11:04:19.085Z,20.30
2022-09-11T11:06:56.198Z,20.35
2022-09-11T11:09:34.649Z,20.33
2022-09-11T11:12:17.242Z,20.37
2022-09-11T11:14:58.669Z,20.36
2022-09-11T11:17:32.514Z,20.37
2022-09-11T11:20:09.979Z,20.31
2022-09-11T11:22:56.125Z,20.26
2022-09-11T11:25:28.740Z,20.28
2022-09-11T11:28:11.701Z,20.26
2022-09-11T11:30:45.828Z,20.24
2022-09-11T11:33:57.991Z,20.21
2022-09-11T11:36:28.846Z,20.18
2022-09-11T11:39:02.133Z,20.15
2022-09-11T11:41:31.755Z,20.12
2022-09-11T11:44:03.420Z,20.15
2022-09-11T11:46:33.496Z,20.21
2022-09-11T11:49:05.758Z,20.27
2022-09-11T11:51:36.214Z,20.37
2022-09-11T11:54:06.674Z,20.45
2022-09-11T11:56:40.789Z,20.55
2022-09-11T11:59:13.541Z,20.61
2022-09-11T12:01:44.037Z,20.61
2022-09-11T12:04:24.198Z,20.60
2022-09-11T12:06:51.942Z,20.57
2022-09-11T12:09:19.967Z,20.56
2022-09-11T12:11:49.679Z,20.54
2022-09-11T12:14:27.512Z,20.56
2022-09-11T12:16:56.535Z,20.68
2022-09-11T12:19:26.244Z,20.86
2022-09-11T12:22:14.678Z,20.97
2022-09-11T12:24:58.639Z,21.06
2022-09-11T12:27:53.152Z,21.20
2022-09-11T12:30:28.583Z,21.26
2022-09-11T12:32:57.226Z,21.30
2022-09-11T12:35:30.743Z,21.27
2022-09-11T12:38:02.670Z,21.28
2022-09-11T12:40:35.818Z,21.23
2022-09-11T12:43:31.096Z,21.31
2022-09-11T12:48:38.657Z,21.48
2022-09-11T12:51:07.329Z,21.59
2022-09-11T12:53:37.627Z,21.69
2022-09-11T12:56:07.117Z,21.81
2022-09-11T12:58:37.484Z,22.02
2022-09-11T13:01:15.740Z,22.23
2022-09-11T13:03:51.571Z,22.41
2022-09-11T13:06:19.482Z,22.40
2022-09-11T13:08:50.338Z,22.37
2022-09-11T13:11:42.152Z,22.35
2022-09-11T13:14:45.684Z,22.29
2022-09-11T13:17:16.344Z,22.25
2022-09-11T13:19:45.389Z,22.14
2022-09-11T13:22:22.542Z,22.01
2022-09-11T13:24:50.459Z,21.87
2022-09-11T13:27:23.897Z,21.68
2022-09-11T13:29:52.050Z,21.67
2022-09-11T13:32:20.041Z,21.68
2022-09-11T13:34:50.991Z,21.65
2022-09-11T13:37:31.122Z,21.82
2022-09-11T13:39:59.648Z,21.95
2022-09-11T13:42:28.380Z,22.03
2022-09-11T13:44:57.039Z,22.10
2022-09-11T13:47:25.960Z,22.13
2022-09-11T13:49:57.958Z,22.15
2022-09-11T13:52:27.538Z,22.24
2022-09-11T13:54:56.283Z,22.29
2022-09-11T13:57:24.911Z,22.33
2022-09-11T13:59:54.214Z,22.36
2022-09-11T14:02:32.138Z,22.41
2022-09-11T14:05:13.794Z,22.48
2022-09-11T14:07:56.498Z,22.61
2022-09-11T14:10:32.908Z,22.69
2022-09-11T14:13:14.095Z,22.73
2022-09-11T14:15:43.851Z,22.82
2022-09-11T14:18:17.501Z,22.74
2022-09-11T14:20:47.151Z,22.66
2022-09-11T14:23:20.262Z,22.57
2022-09-11T14:26:07.593Z,22.50
2022-09-11T14:28:37.346Z,22.43
2022-09-11T14:31:09.429Z,22.37
2022-09-11T14:33:37.108Z,22.36
2022-09-11T14:36:10.770Z,22.42
2022-09-11T14:38:39.117Z,22.56
2022-09-11T14:41:08.055Z,22.68
2022-09-11T14:43:36.510Z,22.71
2022-09-11T14:46:04.508Z,22.76
2022-09-11T14:48:34.587Z,22.73
2022-09-11T14:51:09.898Z,22.69
2022-09-11T14:53:43.365Z,22.83
2022-09-11T14:56:11.261Z,22.94
2022-09-11T14:58:38.986Z,23.05
2022-09-11T15:01:06.980Z,23.05
2022-09-11T15:03:34.940Z,23.04
2022-09-11T15:06:02.645Z,23.08
2022-09-11T15:08:30.278Z,23.21
2022-09-11T15:10:59.471Z,23.19
2022-09-11T15:13:27.236Z,23.14
2022-09-11T15:15:56.118Z,23.10
2022-09-11T15:18:23.840Z,23.08
2022-09-11T15:20:51.452Z,23.02
2022-09-11T15:23:19.033Z,22.96
2022-09-11T15:25:46.778Z,22.98
2022-09-11T15:28:15.916Z,22.98
2022-09-11T15:30:43.655Z,23.02
2022-09-11T15:33:11.371Z,23.05
2022-09-11T15:35:39.012Z,23.00
2022-09-11T15:40:36.216Z,22.81
2022-09-11T15:43:03.942Z,22.71
2022-09-11T15:45:33.085Z,22.69
2022-09-11T15:48:00.893Z,22.65
2022-09-11T15:50:30.153Z,22.58
2022-09-11T15:52:57.806Z,22.54
2022-09-11T15:55:26.621Z,22.51
2022-09-11T15:57:54.246Z,22.48
2022-09-11T16:00:22.008Z,22.45
2022-09-11T16:02:53.515Z,22.41
2022-09-11T16:05:23.011Z,22.34
2022-09-11T16:07:50.661Z,22.33
2022-09-11T16:10:18.595Z,22.29
2022-09-11T16:12:47.031Z,22.27
2022-09-11T16:15:14.726Z,22.24
2022-09-11T16:17:42.381Z,22.23
2022-09-11T16:20:12.751Z,22.25
2022-09-11T16:22:44.621Z,22.19
2022-09-11T16:25:12.331Z,22.14
2022-09-11T16:27:40.157Z,22.12
2022-09-11T16:30:39.313Z,22.10
2022-09-11T16:32:57.613Z,22.09
2022-09-11T16:35:27.304Z,22.09
2022-09-11T16:37:54.936Z,22.08
2022-09-11T16:40:22.807Z,22.04
2022-09-11T16:42:50.495Z,22.05
2022-09-11T16:45:19.600Z,22.04
2022-09-11T16:47:47.290Z,22.03
2022-09-11T16:50:14.909Z,22.01
2022-09-11T16:52:43.961Z,21.98
2022-09-11T16:55:11.711Z,21.96
2022-09-11T16:57:39.715Z,21.95
2022-09-11T17:00:09.154Z,21.93
2022-09-11T17:02:37.363Z,21.89
2022-09-11T17:05:05.903Z,21.90
2022-09-11T17:07:33.528Z,21.85
2022-09-11T17:10:02.607Z,21.87
2022-09-11T17:12:30.202Z,21.85
2022-09-11T17:14:58.029Z,21.85
2022-09-11T17:17:25.760Z,21.83
2022-09-11T17:19:54.040Z,21.81
2022-09-11T17:22:21.788Z,21.80
2022-09-11T17:24:49.425Z,21.78
2022-09-11T17:27:18.444Z,21.74
2022-09-11T17:29:47.247Z,21.71
2022-09-11T17:32:27.718Z,21.71
2022-09-11T17:34:56.845Z,21.69
2022-09-11T17:37:25.847Z,21.68
2022-09-11T17:39:53.659Z,21.70
2022-09-11T17:42:23.033Z,21.68
2022-09-11T17:44:50.946Z,21.67
2022-09-11T17:47:19.510Z,21.66
2022-09-11T17:49:47.223Z,21.67
2022-09-11T17:52:15.536Z,21.65
2022-09-11T17:54:43.394Z,21.64
2022-09-11T17:57:11.914Z,21.53
2022-09-11T17:59:42.750Z,21.58
2022-09-11T18:02:11.688Z,21.57
2022-09-11T18:04:39.507Z,21.50
2022-09-11T18:07:07.367Z,21.54
2022-09-11T18:09:34.973Z,21.52
2022-09-11T18:12:04.064Z,21.48
2022-09-11T18:14:31.876Z,21.44
2022-09-11T18:17:00.985Z,21.46
2022-09-11T18:19:29.189Z,21.43
2022-09-11T18:21:57.342Z,21.40
2022-09-11T18:24:29.827Z,21.38
2022-09-11T18:27:00.927Z,21.35
2022-09-11T18:29:30.387Z,21.33
2022-09-11T18:31:59.911Z,21.33
2022-09-11T18:34:31.129Z,21.32
2022-09-11T18:36:59.921Z,21.28
2022-09-11T18:39:28.323Z,21.28
2022-09-11T18:41:56.044Z,21.26
2022-09-11T18:44:25.297Z,21.24
2022-09-11T18:46:54.432Z,21.24
2022-09-11T18:49:22.721Z,21.21
2022-09-11T18:51:51.860Z,21.20
2022-09-11T18:54:20.892Z,21.17
2022-09-11T18:56:49.711Z,21.14
2022-09-11T18:59:17.561Z,21.13
2022-09-11T19:01:45.467Z,21.12
2022-09-11T19:04:14.639Z,21.08
2022-09-11T19:06:42.594Z,21.03
2022-09-11T19:09:12.871Z,21.03
2022-09-11T19:11:41.080Z,21.01
2022-09-11T19:14:10.476Z,20.98
2022-09-11T19:16:39.439Z,20.94
2022-09-11T19:19:08.112Z,20.91
2022-09-11T19:21:37.891Z,20.88
2022-09-11T19:24:06.690Z,20.84
2022-09-11T19:26:37.523Z,20.81
2022-09-11T19:29:05.236Z,20.80
2022-09-11T19:31:33.788Z,20.74
2022-09-11T19:34:02.052Z,20.75
2022-09-11T19:36:31.111Z,20.71
2022-09-11T19:39:00.613Z,20.69
2022-09-11T19:41:31.246Z,20.59
2022-09-11T19:44:01.525Z,20.61
2022-09-11T19:46:30.420Z,20.60
2022-09-11T19:49:00.793Z,20.60
2022-09-11T19:51:29.917Z,20.59
2022-09-11T19:54:00.291Z,20.57
2022-09-11T19:56:28.607Z,20.53
2022-09-11T19:58:56.376Z,20.50
2022-09-11T20:01:26.258Z,20.47
2022-09-11T20:03:55.109Z,20.45
2022-09-11T20:06:24.840Z,20.37
2022-09-11T20:09:07.958Z,20.41
2022-09-11T20:11:41.360Z,20.39
2022-09-11T20:14:09.670Z,20.34
2022-09-11T20:16:38.721Z,20.34
2022-09-11T20:19:06.684Z,20.33
2022-09-11T20:21:36.023Z,20.27
2022-09-11T20:24:06.206Z,20.27
2022-09-11T20:26:34.280Z,20.22
2022-09-11T20:29:03.633Z,20.17
2022-09-11T20:31:32.624Z,20.17
2022-09-11T20:34:02.485Z,20.13
2022-09-11T20:36:31.143Z,20.12
2022-09-11T20:39:00.643Z,20.10
2022-09-11T20:41:30.575Z,20.06
2022-09-11T20:44:00.536Z,20.05
2022-09-11T20:46:28.400Z,20.00
2022-09-11T20:48:56.147Z,19.99
2022-09-11T20:51:25.266Z,19.96
2022-09-11T20:53:53.028Z,19.93
2022-09-11T20:56:22.609Z,19.90
2022-09-11T20:58:50.575Z,19.89
2022-09-11T21:01:21.140Z,19.86
2022-09-11T21:03:50.122Z,19.84
2022-09-11T21:06:22.061Z,19.81
2022-09-11T21:08:55.375Z,19.81
2022-09-11T21:11:23.315Z,19.80
2022-09-11T21:13:50.969Z,19.78
2022-09-11T21:16:19.733Z,19.75
2022-09-11T21:18:49.099Z,19.71
2022-09-11T21:21:17.068Z,19.64
2022-09-11T21:23:44.817Z,19.63
2022-09-11T21:26:16.602Z,19.59
2022-09-11T21:28:44.422Z,19.59
2022-09-11T21:31:12.536Z,19.56
2022-09-11T21:33:40.505Z,19.56
2022-09-11T21:36:08.534Z,19.54
2022-09-11T21:38:37.651Z,19.52
2022-09-11T21:41:06.913Z,19.50
2022-09-11T21:43:36.158Z,19.48
2022-09-11T21:46:04.103Z,19.46
2022-09-11T21:48:35.771Z,19.42
2022-09-11T21:51:07.954Z,19.39
2022-09-11T21:53:35.651Z,19.37
2022-09-11T21:56:03.716Z,19.34
2022-09-11T21:58:31.356Z,19.33
2022-09-11T22:01:05.888Z,19.32
2022-09-11T22:03:33.703Z,19.33
2022-09-11T22:06:05.487Z,19.31
2022-09-11T22:08:33.282Z,19.30
2022-09-11T22:11:02.948Z,19.27
2022-09-11T22:13:30.832Z,19.29
2022-09-11T22:16:00.217Z,19.25
2022-09-11T22:18:29.295Z,19.22
2022-09-11T22:21:00.375Z,19.18
2022-09-11T22:23:29.906Z,19.15
2022-09-11T22:26:01.412Z,19.14
2022-09-11T22:28:29.528Z,19.11
2022-09-11T22:30:57.395Z,19.09
2022-09-11T22:33:25.656Z,19.05
2022-09-11T22:35:54.744Z,19.01
2022-09-11T22:38:22.382Z,19.00
2022-09-11T22:40:53.976Z,18.96
2022-09-11T22:43:21.958Z,18.94
2022-09-11T22:45:52.821Z,18.93
2022-09-11T22:48:20.844Z,18.92
2022-09-11T22:50:48.722Z,18.87
2022-09-11T22:53:17.932Z,18.83
2022-09-11T22:55:46.361Z,18.82
2022-09-11T22:58:14.457Z,18.81
2022-09-11T23:00:43.183Z,18.77
2022-09-11T23:03:10.984Z,18.74
2022-09-11T23:05:56.435Z,18.74
2022-09-11T23:08:29.289Z,18.70
2022-09-11T23:11:00.055Z,18.67
2022-09-11T23:13:27.740Z,18.69
2022-09-11T23:15:57.326Z,18.70
2022-09-11T23:18:25.818Z,18.65
2022-09-11T23:20:54.215Z,18.72
2022-09-11T23:23:22.275Z,18.67
2022-09-11T23:25:51.625Z,18.63
2022-09-11T23:28:19.634Z,18.61
2022-09-11T23:30:47.311Z,18.63
2022-09-11T23:33:14.990Z,18.63
2022-09-11T23:35:42.582Z,18.60
2022-09-11T23:38:10.269Z,18.62
2022-09-11T23:40:37.901Z,18.59
2022-09-11T23:43:06.920Z,18.59
2022-09-11T23:45:34.581Z,18.57
2022-09-11T23:48:02.682Z,18.55
2022-09-11T23:50:30.422Z,18.52
2022-09-11T23:52:58.064Z,18.48
2022-09-11T23:55:25.713Z,18.47
2022-09-11T23:57:55.363Z,18.44
